AirNav   Everest Fuels
 
 919 users online  

9FD6 Academy Heliport
Tampa, Florida, USA

GOING TO TAMPA?


FAA INFORMATION EFFECTIVE 30 JANUARY 2020

Location

FAA Identifier: 9FD6
Lat/Long: 27-56-49.0790N 082-25-15.3370W
27-56.817983N 082-25.255617W
27.9469664,-82.4209269
(estimated)
Elevation: 0 ft. / 0 m (estimated)
Variation: 02W (1985)
Time zone: UTC -5 (UTC -4 during Daylight Saving Time)
Zip code: 33605

Heliport Operations

Heliport use: Private use. Permission required prior to landing
Activation date: 08/1988
Control tower: no
ARTCC: MIAMI CENTER
FSS: SAINT PETERSBURG FLIGHT SERVICE STATION
Attendance: MON-FRI 0800-1600
Wind indicator: yes
Segmented circle: no

Heliport Communications

WX AWOS-3 at TPF (2.4 nm SW): 118.925 (813-251-6824)
WX AWOS-3 at VDF (6 nm NE): 121.125 (813-630-0924)
WX ASOS at TPA (6 nm W): PHONE 813-873-7228
WX AWOS-3 at PCM (14 nm E): 120.025 (813-764-8259)
WX ASOS at PIE (14 nm W): PHONE 727-531-3456
WX ASOS at SPG (15 nm SW): 118.875 (727-821-4334)
WX AWOS-3P at CLW (18 nm W): 119.225 (727-449-2184)

Nearby radio navigation aids

VOR radial/distance  VOR name  Freq  Var
PIEr085/14.2ST PETERSBURG VORTAC116.4005W
LALr263/21.7LAKELAND VORTAC116.0001E
SRQr018/33.3SARASOTA VOR/DME117.0005W

 
NDB name  Hdg/Dist  Freq  Var  ID
COSME151/10.036805WTP - .--.

Heliport Services

Runway Information

Helipad H1

Dimensions: 30 x 30 ft. / 9 x 9 m
Surface: concrete
Latitude: 27-56.817983N
Longitude: 082-25.256283W
Traffic pattern: leftleft

Heliport Ownership and Management from official FAA records

Ownership: Publicly-owned
Owner: TAMPA FIRE RESCUE
808 ZACK ST
TAMPA, FL 33602
Phone 813-274-7011
Manager: NICK LOCICERO FIRE CHIEF
808 ZACK ST
TAMPA, FL 33602
Phone 813-274-7011

Additional Remarks

FOR CD CTC TAMPA APCH AT 813-878-2528

Instrument Procedures

There are no published instrument procedures at 9FD6.

Some nearby airports with instrument procedures:

KTPF - Peter O Knight Airport (2 nm SW)
KVDF - Tampa Executive Airport (6 nm NE)
KTPA - Tampa International Airport (6 nm W)
KMCF - MacDill Air Force Base (8 nm SW)
KPCM - Plant City Airport (14 nm E)
KPIE - St Pete-Clearwater International Airport (14 nm W)
KSPG - Albert Whitted Airport (15 nm SW)
KCLW - Clearwater Air Park (18 nm W)
 
Loc | Ops | Rwys | IFR | FBO | Links
Com | Nav | Svcs | Stats | Notes


 
Area around 9FD6 (Academy Heliport)
 
Road maps at: MapQuest Bing Google
 
Aerial photo
No photo
 
Sectional chart

 
Airport distance calculator
Flying to Academy Heliport? Find the distance to fly.

From to 9FD6

Sunrise and sunset
Times for 16-Feb-2020
 Local
(UTC-5)
 Zulu
(UTC)
Morning civil twilight06:4311:43
Sunrise07:0712:07
Sunset18:2023:20
Evening civil twilight18:4423:44

Current date and time
Zulu (UTC)  17-Feb-2020 02:24:58
Local (UTC-5)  16-Feb-2020 21:24:58
 
METAR
KTPF 
2nm SW 
170155Z AUTO 32004KT 10SM OVC100 22/22 A3008 RMK AO2
KVDF 
6nm NE 
170155Z AUTO 34003KT 10SM SCT013 20/19 A3009 RMK AO2
KTPA 
6nm W 
170204Z 35004KT 10SM FEW009 21/18 A3009 RMK AO2 T02110183
KMCF 
8nm SW 
162156Z AUTO 22008KT 10SM FEW036 26/20 A3002 RMK AO2 SLP169 T02550198 FZRANO $
KPCM 
14nm E 
170155Z AUTO 00000KT 10SM SCT050 22/21 A3011 RMK AO2
KPIE 
14nm W 
170153Z 00000KT 10SM FEW009 21/19 A3008 RMK AO2 SLP185 T02110194
KSPG 
16nm SW 
170153Z AUTO 33004KT 10SM CLR 22/20 A3006 RMK AO2 SLP178 T02170200
KCLW 
18nm W 
170155Z AUTO 00000KT 10SM SCT009 20/18 A3008 RMK AO2
TAF
KTPA 
6nm W 
162059Z 1621/1724 24011KT P6SM SCT035 BKN120 FM162300 29007KT P6SM FEW015 SCT025 BKN100 FM170200 VRB03KT P6SM SCT015 SCT025 BKN080 FM170800 00000KT 4SM BR SCT006 OVC015 TEMPO 1708/1712 2SM BR BKN006 FM171500 13005KT P6SM SCT015 BKN025 OVC050 FM171900 23006KT P6SM SCT035 BKN050
KMCF 
8nm SW 
162230Z 1622/1723 22009KT 9999 VCSH SCT030 SCT120 QNH3009INS BECMG 1622/1623 27009KT 9000 -SHRA SCT030 BKN080 QNH3004INS BECMG 1704/1705 02006KT 6000 BR BKN008 QNH3007INS BECMG 1712/1713 VRB06KT 9000 BR SCT012 BKN025 QNH3005INS BECMG 1715/1716 29009KT 9999 NSW SCT030 QNH3010INS TX28/1720Z TN19/1706Z LAST NO AMDS AFT 1622 NEXT 1801
KPIE 
14nm W 
161720Z 1618/1718 16009KT P6SM SCT030 SCT120 FM162000 24011KT P6SM SCT035 BKN120 FM162300 29007KT P6SM FEW015 SCT025 BKN100 FM170200 VRB03KT P6SM SCT015 SCT025 BKN080 FM170800 00000KT 4SM BR SCT006 OVC015 TEMPO 1708/1712 2SM BR BKN006 FM171500 12005KT P6SM SCT015 BKN025 OVC050
NOTAMs
Click for the latest NOTAMs
NOTAMs are issued by the DoD/FAA and will open in a separate window not controlled by AirNav.

 

 
 

Would you like to see your business listed on this page?

 If your business provides an interesting product or service to pilots, flight crews, aircraft, or users of the Academy Heliport, you should consider listing it here.  To start the listing process, click on the button below
 
Add a business
 

Other Pages about Academy Heliport

Update a link
 
Copyright © AirNav, LLC. All rights reserved. Privacy Policy  Contact